Time;durP1;ratioP1;P1;durP2;ratioP2;P2;SDS_P1;SDS_P2;PMS_P1;PMS_P2;Temp;Humidity;BMP_temperature;BMP_pressure;BME280_temperature;BME280_humidity;BME280_pressure;Samples;Min_cycle;Max_cycle;Signal;HPM_P1;HPM_P2
2022/03/24 00:02:19;;;;;;;18.97;13.07;;;;;;;;;;4972994;28;20027;-66
2022/03/24 00:04:45;;;;;;;15.67;11.67;;;;;;;;;;4973057;28;20806;-65
2022/03/24 00:07:12;;;;;;;21.57;12.97;;;;;;;;;;4972471;28;20031;-66
2022/03/24 00:09:37;;;;;;;20.67;12.93;;;6.90;96.60;;;;;;4972373;28;20507;-66
2022/03/24 00:12:03;;;;;;;19.30;13.60;;;6.80;95.20;;;;;;4972807;28;20022;-66
2022/03/24 00:14:29;;;;;;;22.93;14.57;;;6.90;96.50;;;;;;4972794;28;20039;-66
2022/03/24 00:16:54;;;;;;;17.13;12.87;;;6.80;92.70;;;;;;4953941;28;20034;-65
2022/03/24 00:19:22;;;;;;;17.57;13.57;;;;;;;;;;4953143;29;20043;-66
2022/03/24 00:21:48;;;;;;;22.40;14.80;;;;;;;;;;4953175;28;20031;-66
2022/03/24 00:24:14;;;;;;;18.30;14.07;;;6.70;94.50;;;;;;4953429;29;20027;-66
2022/03/24 00:26:40;;;;;;;18.43;14.40;;;6.50;96.80;;;;;;4953361;28;20110;-66
2022/03/24 00:29:05;;;;;;;21.60;15.43;;;6.60;96.80;;;;;;4962904;28;20110;-66
2022/03/24 00:31:31;;;;;;;17.03;12.73;;;6.70;97.10;;;;;;4972285;28;20086;-66
2022/03/24 00:33:57;;;;;;;23.33;14.33;;;;;;;;;;4972215;28;20134;-66
2022/03/24 00:36:24;;;;;;;21.13;13.30;;;6.50;92.20;;;;;;4971943;28;20046;-66
2022/03/24 00:38:52;;;;;;;20.67;14.60;;;6.40;92.90;;;;;;4972062;28;20042;-66
2022/03/24 00:41:19;;;;;;;21.30;13.93;;;6.40;90.60;;;;;;4972347;28;20026;-66
2022/03/24 00:43:46;;;;;;;20.07;15.23;;;6.50;97.70;;;;;;4966420;28;20488;-66
2022/03/24 00:46:12;;;;;;;19.87;14.93;;;6.40;97.20;;;;;;4970629;28;20050;-66
2022/03/24 00:48:37;;;;;;;21.97;14.17;;;6.30;97.80;;;;;;4971307;28;20353;-66
2022/03/24 00:51:04;;;;;;;21.77;14.20;;;6.30;94.20;;;;;;4971629;28;20033;-66
2022/03/24 00:53:29;;;;;;;20.47;14.03;;;6.30;98.10;;;;;;4972102;28;20089;-66
2022/03/24 00:55:56;;;;;;;20.33;14.63;;;6.30;98.10;;;;;;4972032;28;20023;-66
2022/03/24 00:58:21;;;;;;;19.37;14.53;;;6.20;98.10;;;;;;4967358;28;20081;-66
2022/03/24 01:00:47;;;;;;;16.50;12.63;;;6.30;98.10;;;;;;4952806;28;20439;-66
2022/03/24 01:03:13;;;;;;;20.40;13.03;;;6.20;98.00;;;;;;4952371;28;20158;-66
2022/03/24 01:05:39;;;;;;;18.10;13.20;;;6.20;97.90;;;;;;4952216;28;20023;-66
2022/03/24 01:08:08;;;;;;;19.90;13.33;;;6.20;97.90;;;;;;4952168;28;20106;-66
2022/03/24 01:10:35;;;;;;;16.80;12.60;;;6.20;90.70;;;;;;4962810;28;20118;-66
2022/03/24 01:13:00;;;;;;;18.17;13.97;;;6.20;93.20;;;;;;4968840;28;20094;-66
2022/03/24 01:15:27;;;;;;;19.77;14.30;;;6.20;93.00;;;;;;4968504;28;20499;-65
2022/03/24 01:17:53;;;;;;;18.33;12.77;;;6.20;98.00;;;;;;4951729;28;20035;-66
2022/03/24 01:20:19;;;;;;;15.57;11.87;;;6.20;98.20;;;;;;4951724;28;20029;-66
2022/03/24 01:22:45;;;;;;;21.77;14.63;;;6.00;98.30;;;;;;4952292;28;20110;-66
2022/03/24 01:25:12;;;;;;;22.73;14.00;;;6.00;91.10;;;;;;4952087;28;20134;-66
2022/03/24 01:27:40;;;;;;;18.13;13.23;;;6.00;98.60;;;;;;4952060;28;20027;-66
2022/03/24 01:30:09;;;;;;;21.67;13.50;;;5.90;96.50;;;;;;4953299;28;20031;-68
2022/03/24 01:32:35;;;;;;;26.67;13.53;;;5.80;95.90;;;;;;4952054;28;20511;-65
2022/03/24 01:35:01;;;;;;;18.83;13.30;;;;;;;;;;4951420;28;20126;-66
2022/03/24 01:37:27;;;;;;;17.87;12.70;;;;;;;;;;4951860;29;20475;-66
2022/03/24 01:39:53;;;;;;;16.63;11.93;;;5.80;93.70;;;;;;4951640;29;20547;-66
2022/03/24 01:42:20;;;;;;;20.13;14.70;;;5.80;91.70;;;;;;4951875;29;20038;-66
2022/03/24 01:44:49;;;;;;;21.17;13.10;;;5.80;92.50;;;;;;4965386;28;20387;-66
2022/03/24 01:47:16;;;;;;;19.33;12.77;;;5.80;91.90;;;;;;4971135;28;20031;-65
2022/03/24 01:49:44;;;;;;;18.83;13.07;;;5.70;98.10;;;;;;4970902;28;20038;-66
2022/03/24 01:52:12;;;;;;;25.67;14.00;;;5.80;95.30;;;;;;4965122;28;20094;-66
2022/03/24 01:54:41;;;;;;;17.53;12.77;;;5.70;98.90;;;;;;4952013;28;20043;-66
2022/03/24 01:57:09;;;;;;;19.57;13.73;;;5.60;99.00;;;;;;4951399;28;20027;-65
2022/03/24 01:59:38;;;;;;;20.23;14.27;;;5.70;92.00;;;;;;4951500;28;20054;-66
2022/03/24 02:02:05;;;;;;;18.87;13.53;;;5.30;99.10;;;;;;4951097;28;20106;-66
2022/03/24 02:04:32;;;;;;;19.57;12.37;;;5.60;99.30;;;;;;4969349;28;20049;-66
2022/03/24 02:06:58;;;;;;;23.30;13.87;;;5.40;99.40;;;;;;4970750;28;20031;-66
2022/03/24 02:09:23;;;;;;;20.00;13.83;;;5.50;99.50;;;;;;4970583;28;20612;-68
2022/03/24 02:11:49;;;;;;;19.67;13.53;;;5.50;99.50;;;;;;4970673;28;20034;-68
2022/03/24 02:14:15;;;;;;;20.00;13.43;;;;;;;;;;4970463;28;21101;-67
2022/03/24 02:16:41;;;;;;;23.47;13.60;;;5.40;97.60;;;;;;4970520;28;20035;-68
2022/03/24 02:19:21;;;;;;;22.40;14.17;;;5.30;99.80;;;;;;4970378;28;20039;-68
2022/03/24 02:21:53;;;;;;;19.80;13.07;;;5.40;93.20;;;;;;4954897;28;20031;-68
2022/03/24 02:24:21;;;;;;;18.13;14.03;;;5.40;99.90;;;;;;4955439;28;20031;-68
2022/03/24 02:26:48;;;;;;;19.40;13.80;;;5.20;99.90;;;;;;4954208;29;20380;-68
2022/03/24 02:29:15;;;;;;;19.00;13.30;;;5.30;99.90;;;;;;4955279;28;20028;-67
2022/03/24 02:31:44;;;;;;;23.00;15.13;;;5.20;93.40;;;;;;4955060;28;20170;-68
2022/03/24 02:36:58;;;;;;;21.60;14.07;;;5.10;99.90;;;;;;4955307;29;20239;-68
2022/03/24 02:39:24;;;;;;;19.53;14.50;;;5.20;98.30;;;;;;4955426;28;20071;-68
2022/03/24 02:41:54;;;;;;;24.27;13.90;;;5.20;94.30;;;;;;4969290;28;20031;-68
2022/03/24 02:44:22;;;;;;;21.57;14.70;;;5.00;99.90;;;;;;4955123;28;20165;-68
2022/03/24 02:46:48;;;;;;;21.83;14.17;;;5.00;93.70;;;;;;4954716;28;20457;-68
2022/03/24 02:49:15;;;;;;;18.50;13.70;;;4.90;94.30;;;;;;4955344;28;20035;-67
2022/03/24 02:51:42;;;;;;;21.40;14.50;;;4.90;99.90;;;;;;4973774;28;20057;-68
2022/03/24 02:54:09;;;;;;;24.83;16.00;;;4.80;99.20;;;;;;4974108;28;20044;-68
2022/03/24 02:56:35;;;;;;;25.77;15.57;;;;;;;;;;4971671;28;20443;-68
2022/03/24 02:59:01;;;;;;;20.53;16.27;;;4.70;99.90;;;;;;4954616;29;20780;-68
2022/03/24 03:01:27;;;;;;;20.90;14.93;;;4.70;99.90;;;;;;4954378;28;20024;-68
2022/03/24 03:03:53;;;;;;;23.63;15.50;;;4.60;94.60;;;;;;4954565;28;20429;-68
2022/03/24 03:06:20;;;;;;;23.30;15.37;;;4.60;97.60;;;;;;4954448;29;20087;-67
2022/03/24 03:08:47;;;;;;;20.37;15.07;;;4.60;97.90;;;;;;4954750;28;20035;-67
2022/03/24 03:11:13;;;;;;;22.83;15.17;;;;;;;;;;4954434;28;20054;-67
2022/03/24 03:13:38;;;;;;;25.67;15.40;;;4.50;99.90;;;;;;4954491;29;20031;-67
2022/03/24 03:16:05;;;;;;;20.10;14.77;;;4.40;99.90;;;;;;4952655;29;20031;-67
2022/03/24 03:18:32;;;;;;;21.53;14.93;;;;;;;;;;4954134;28;20044;-67
2022/03/24 03:20:59;;;;;;;22.10;15.83;;;4.40;99.90;;;;;;4954564;28;20023;-67
2022/03/24 03:23:25;;;;;;;27.37;16.83;;;4.40;99.90;;;;;;4969093;28;20479;-67
2022/03/24 03:25:51;;;;;;;23.43;15.30;;;4.30;99.90;;;;;;4954154;28;20031;-66
2022/03/24 03:28:16;;;;;;;25.17;15.80;;;4.40;99.90;;;;;;4954509;28;20094;-67
2022/03/24 03:30:43;;;;;;;23.23;16.00;;;4.30;99.90;;;;;;4953995;29;20031;-67
2022/03/24 03:33:09;;;;;;;22.20;14.90;;;4.20;97.20;;;;;;4952559;28;20035;-66
2022/03/24 03:35:34;;;;;;;23.30;15.60;;;4.30;99.90;;;;;;4954080;28;20046;-67
2022/03/24 03:38:00;;;;;;;24.40;15.07;;;4.30;99.90;;;;;;4953784;29;20415;-67
2022/03/24 03:40:25;;;;;;;24.63;15.27;;;4.00;99.90;;;;;;4953906;29;20035;-68
2022/03/24 03:42:52;;;;;;;21.67;15.33;;;;;;;;;;4956339;28;20374;-67
2022/03/24 03:45:19;;;;;;;21.70;15.77;;;;;;;;;;4952084;28;20540;-67
2022/03/24 03:47:45;;;;;;;22.13;14.57;;;4.00;99.90;;;;;;4953832;28;20115;-67
2022/03/24 03:50:10;;;;;;;23.40;15.30;;;4.00;99.90;;;;;;4953403;29;20118;-67
2022/03/24 03:52:37;;;;;;;22.23;14.43;;;4.00;99.90;;;;;;4953777;29;20395;-67
2022/03/24 03:55:03;;;;;;;25.40;15.00;;;4.00;99.90;;;;;;4954044;28;20031;-67
2022/03/24 03:57:28;;;;;;;23.43;15.70;;;4.00;99.90;;;;;;4963079;28;20031;-67
2022/03/24 03:59:54;;;;;;;23.40;15.77;;;3.90;99.90;;;;;;4972487;28;20445;-66
2022/03/24 04:02:19;;;;;;;25.20;15.23;;;3.90;99.90;;;;;;4972826;28;20038;-66
2022/03/24 04:04:46;;;;;;;20.80;14.93;;;;;;;;;;4973152;28;20026;-66
2022/03/24 04:07:12;;;;;;;24.73;15.47;;;3.40;99.90;;;;;;4973055;28;20396;-66
2022/03/24 04:09:38;;;;;;;22.17;14.53;;;3.40;99.90;;;;;;4972481;28;20484;-66
2022/03/24 04:12:04;;;;;;;23.77;14.67;;;3.80;99.90;;;;;;4966798;28;20032;-66
2022/03/24 04:14:30;;;;;;;25.50;15.27;;;3.80;99.90;;;;;;4953082;28;20135;-66
2022/03/24 04:16:57;;;;;;;28.13;15.63;;;3.70;99.90;;;;;;4953331;28;20188;-66
2022/03/24 04:19:24;;;;;;;25.33;15.13;;;3.80;99.90;;;;;;4972579;28;20035;-66
2022/03/24 04:21:49;;;;;;;23.03;14.90;;;3.90;99.90;;;;;;4972480;28;20077;-66
2022/03/24 04:24:15;;;;;;;23.63;15.87;;;3.60;99.20;;;;;;4972589;28;20022;-66
2022/03/24 04:26:40;;;;;;;23.13;15.07;;;3.50;99.90;;;;;;4970406;28;20027;-66
2022/03/24 04:29:06;;;;;;;24.50;16.37;;;3.60;99.90;;;;;;4952584;29;20086;-66
2022/03/24 04:31:32;;;;;;;23.70;14.97;;;;;;;;;;4953084;29;20030;-66
2022/03/24 04:33:57;;;;;;;26.17;16.87;;;3.60;99.90;;;;;;4952965;29;20124;-66
2022/03/24 04:36:23;;;;;;;26.17;15.77;;;3.60;99.90;;;;;;4967704;28;20027;-66
2022/03/24 04:38:49;;;;;;;20.63;13.93;;;;;;;;;;4972154;28;20484;-66
2022/03/24 04:41:15;;;;;;;24.40;14.87;;;;;;;;;;4972299;28;20030;-65
2022/03/24 04:43:40;;;;;;;21.73;13.43;;;3.60;99.90;;;;;;4967821;28;20027;-66
2022/03/24 04:46:06;;;;;;;22.57;14.03;;;;;;;;;;4952665;29;20062;-66
2022/03/24 04:48:38;;;;;;;21.33;12.97;;;3.50;99.90;;;;;;4954002;28;20042;-66
2022/03/24 04:51:07;;;;;;;21.50;14.00;;;3.50;99.90;;;;;;4952617;29;20031;-66
2022/03/24 04:53:33;;;;;;;22.43;14.80;;;3.50;97.10;;;;;;4952658;28;20046;-66
2022/03/24 04:55:58;;;;;;;19.43;12.53;;;3.50;99.90;;;;;;4952272;28;20053;-66
2022/03/24 04:58:24;;;;;;;23.27;14.57;;;;;;;;;;4952779;28;20465;-66
2022/03/24 05:00:50;;;;;;;21.87;14.03;;;3.40;99.90;;;;;;4971631;28;20113;-66
2022/03/24 05:03:16;;;;;;;25.40;13.97;;;3.30;99.90;;;;;;4971852;28;20051;-66
2022/03/24 05:05:42;;;;;;;24.13;13.83;;;3.40;99.90;;;;;;4971858;28;20049;-66
2022/03/24 05:08:08;;;;;;;21.87;13.73;;;;;;;;;;4971528;28;20425;-66
2022/03/24 05:10:33;;;;;;;20.63;13.50;;;3.50;99.90;;;;;;4971005;28;20055;-66
2022/03/24 05:12:59;;;;;;;21.60;14.10;;;3.40;99.90;;;;;;4970761;28;20038;-66
2022/03/24 05:15:25;;;;;;;24.70;14.67;;;3.40;99.90;;;;;;4971748;28;20076;-66
2022/03/24 05:17:51;;;;;;;22.63;14.70;;;3.30;98.80;;;;;;4971576;28;20095;-66
2022/03/24 05:20:17;;;;;;;23.43;15.40;;;3.20;99.90;;;;;;4957208;28;20039;-66
2022/03/24 05:22:42;;;;;;;22.83;14.33;;;3.30;99.90;;;;;;4952376;29;20027;-66
2022/03/24 05:25:08;;;;;;;26.00;16.13;;;3.30;99.90;;;;;;4951896;29;20404;-66
2022/03/24 05:27:34;;;;;;;23.83;15.20;;;3.30;99.90;;;;;;4952175;29;20350;-66
2022/03/24 05:29:59;;;;;;;26.80;15.43;;;3.30;99.90;;;;;;4951610;29;20035;-66
2022/03/24 05:32:26;;;;;;;27.77;16.73;;;3.30;99.90;;;;;;4952114;29;20413;-66
2022/03/24 05:34:52;;;;;;;24.73;14.67;;;3.20;99.90;;;;;;4951992;28;20046;-66
2022/03/24 05:37:17;;;;;;;22.07;14.70;;;3.00;99.90;;;;;;4951912;29;20027;-66
2022/03/24 05:39:43;;;;;;;21.87;15.17;;;3.10;99.90;;;;;;4951716;29;20035;-66
2022/03/24 05:42:09;;;;;;;23.13;13.97;;;3.20;99.90;;;;;;4951850;29;20031;-66
2022/03/24 05:44:35;;;;;;;22.00;14.93;;;3.10;98.70;;;;;;4958618;28;20562;-66
2022/03/24 05:47:02;;;;;;;22.43;15.03;;;3.10;99.90;;;;;;4971153;28;20113;-66
2022/03/24 05:49:28;;;;;;;24.93;16.00;;;3.20;99.90;;;;;;4971273;28;20101;-67
2022/03/24 05:51:54;;;;;;;23.20;16.03;;;;;;;;;;4970926;28;20433;-66
2022/03/24 05:54:20;;;;;;;23.17;15.60;;;3.10;99.90;;;;;;4970661;28;20586;-66
2022/03/24 05:56:46;;;;;;;25.00;14.07;;;3.10;98.50;;;;;;4970512;28;20054;-66
2022/03/24 05:59:13;;;;;;;26.10;16.03;;;3.10;99.90;;;;;;4967660;28;20043;-68
2022/03/24 06:01:41;;;;;;;23.00;14.20;;;3.20;98.60;;;;;;4951730;28;20062;-66
2022/03/24 06:04:08;;;;;;;23.43;14.40;;;3.20;98.70;;;;;;4950341;29;20477;-66
2022/03/24 06:06:37;;;;;;;23.87;15.13;;;;;;;;;;4951523;28;20031;-66
2022/03/24 06:09:04;;;;;;;21.87;14.70;;;3.10;99.90;;;;;;4950956;28;20114;-65
2022/03/24 06:11:30;;;;;;;25.70;14.97;;;3.40;99.90;;;;;;4951515;28;20035;-65
2022/03/24 06:13:56;;;;;;;21.57;13.83;;;3.30;99.90;;;;;;4953161;28;20027;-65
2022/03/24 06:16:24;;;;;;;21.43;13.60;;;3.30;99.90;;;;;;4969675;28;20031;-66
2022/03/24 06:18:49;;;;;;;24.53;15.60;;;3.40;99.90;;;;;;4970637;28;20062;-66
2022/03/24 06:21:15;;;;;;;24.97;15.43;;;3.40;99.90;;;;;;4970778;28;20469;-66
2022/03/24 06:23:41;;;;;;;24.30;14.57;;;;;;;;;;4970749;28;20037;-66
2022/03/24 06:26:08;;;;;;;22.00;14.70;;;3.60;99.90;;;;;;4970619;28;20045;-66
2022/03/24 06:28:34;;;;;;;19.20;13.53;;;3.60;99.90;;;;;;4971258;28;20054;-66
2022/03/24 06:31:00;;;;;;;24.97;16.53;;;;;;;;;;4967753;28;20484;-66
2022/03/24 06:33:26;;;;;;;24.23;14.97;;;3.70;99.90;;;;;;4951965;29;20027;-66
2022/03/24 06:35:52;;;;;;;25.00;15.87;;;;;;;;;;4951683;29;20035;-66
2022/03/24 06:38:18;;;;;;;29.37;16.10;;;;;;;;;;4951099;28;20445;-66
2022/03/24 06:40:44;;;;;;;25.67;16.40;;;4.20;99.90;;;;;;4951758;29;20416;-66
2022/03/24 06:43:11;;;;;;;27.60;17.47;;;4.30;99.90;;;;;;4951759;28;20028;-66
2022/03/24 06:45:37;;;;;;;22.33;15.47;;;4.30;99.90;;;;;;4966288;28;20129;-66
2022/03/24 06:48:06;;;;;;;28.07;17.00;;;3.90;97.70;;;;;;4970831;28;20034;-66
2022/03/24 06:50:32;;;;;;;23.70;17.03;;;4.60;99.90;;;;;;4971122;28;20042;-66
2022/03/24 06:52:58;;;;;;;31.47;18.63;;;4.60;99.90;;;;;;4970556;28;20026;-66
2022/03/24 06:55:23;;;;;;;29.33;17.20;;;4.60;99.90;;;;;;4969357;28;20039;-66
2022/03/24 06:57:49;;;;;;;22.83;16.77;;;;;;;;;;4970349;28;20054;-66
2022/03/24 07:00:15;;;;;;;20.90;14.97;;;4.60;99.90;;;;;;4959269;28;20038;-66
2022/03/24 07:02:43;;;;;;;26.17;15.97;;;4.60;99.30;;;;;;4951666;29;20027;-66
2022/03/24 07:05:11;;;;;;;26.93;17.63;;;4.60;99.90;;;;;;4964669;28;20081;-66
2022/03/24 07:07:37;;;;;;;28.73;18.80;;;5.00;99.90;;;;;;4971170;28;20470;-65
2022/03/24 07:10:02;;;;;;;27.03;18.43;;;5.10;99.90;;;;;;4972497;28;20141;-65
2022/03/24 07:12:28;;;;;;;27.60;19.17;;;;;;;;;;4974159;28;20023;-65
2022/03/24 07:14:54;;;;;;;27.13;18.83;;;5.10;99.90;;;;;;4971442;28;20066;-65
2022/03/24 07:17:19;;;;;;;25.90;19.07;;;5.50;99.90;;;;;;4973936;28;20061;-65
2022/03/24 07:19:45;;;;;;;29.27;18.50;;;5.80;99.90;;;;;;4972810;28;20035;-65
2022/03/24 07:22:11;;;;;;;22.97;17.53;;;;;;;;;;4973355;28;20442;-65
2022/03/24 07:24:38;;;;;;;23.27;18.73;;;5.60;99.90;;;;;;4971115;28;20073;-65
2022/03/24 07:27:04;;;;;;;33.57;19.67;;;5.80;97.90;;;;;;4993420;28;20030;-65
2022/03/24 07:29:30;;;;;;;27.23;20.40;;;;;;;;;;4983180;28;20027;-65
2022/03/24 07:31:56;;;;;;;31.77;19.10;;;6.10;99.90;;;;;;4973717;28;20433;-65
2022/03/24 07:34:22;;;;;;;26.47;18.73;;;6.20;99.90;;;;;;4973796;28;20058;-65
2022/03/24 07:36:48;;;;;;;26.90;19.67;;;;;;;;;;4973350;28;20027;-65
2022/03/24 07:39:14;;;;;;;26.03;18.73;;;;;;;;;;4973832;28;20090;-66
2022/03/24 07:41:40;;;;;;;28.70;20.37;;;;;;;;;;4958648;28;20039;-65
2022/03/24 07:44:06;;;;;;;27.93;21.20;;;;;;;;;;4963741;28;20106;-65
2022/03/24 07:46:35;;;;;;;32.57;20.30;;;6.90;99.90;;;;;;4972196;28;20538;-65
2022/03/24 07:49:01;;;;;;;33.57;21.43;;;;;;;;;;4973432;28;20026;-66
2022/03/24 07:51:32;;;;;;;27.37;18.27;;;7.10;95.20;;;;;;4971772;28;20035;-65
2022/03/24 07:54:00;;;;;;;31.80;20.50;;;7.20;99.90;;;;;;4973641;28;20432;-66
2022/03/24 07:56:26;;;;;;;29.33;19.80;;;7.20;99.90;;;;;;4967387;28;20058;-65
2022/03/24 07:58:56;;;;;;;28.93;19.77;;;7.30;99.90;;;;;;4972136;28;20046;-65
2022/03/24 08:01:30;;;;;;;28.43;19.80;;;7.60;93.70;;;;;;4964925;28;20031;-65
2022/03/24 08:04:03;;;;;;;28.53;19.80;;;7.80;93.70;;;;;;4984925;28;20405;-66
2022/03/24 08:06:30;;;;;;;28.20;19.50;;;7.80;99.90;;;;;;4987601;28;20022;-65
2022/03/24 08:08:56;;;;;;;30.47;19.00;;;8.10;97.80;;;;;;4992400;28;20030;-66
2022/03/24 08:11:22;;;;;;;33.13;20.60;;;;;;;;;;4974139;28;20082;-66
2022/03/24 08:13:53;;;;;;;28.87;19.60;;;8.30;94.00;;;;;;4953638;29;20027;-66
2022/03/24 08:16:19;;;;;;;29.07;20.07;;;8.60;99.90;;;;;;4955151;28;20540;-66
2022/03/24 08:18:45;;;;;;;29.70;20.43;;;;;;;;;;4971964;28;20078;-66
2022/03/24 08:21:10;;;;;;;31.47;22.47;;;;;;;;;;4972310;28;20384;-66
2022/03/24 08:23:36;;;;;;;29.97;20.30;;;8.80;97.80;;;;;;4972922;28;20372;-66
2022/03/24 08:26:02;;;;;;;31.20;20.47;;;8.80;99.90;;;;;;4972347;28;20367;-66
2022/03/24 08:28:28;;;;;;;28.17;21.13;;;;;;;;;;4972814;28;20528;-67
2022/03/24 08:30:53;;;;;;;35.20;22.43;;;9.20;99.80;;;;;;4971724;28;20089;-65
2022/03/24 08:33:19;;;;;;;32.03;21.57;;;;;;;;;;4963928;28;20058;-66
2022/03/24 08:35:45;;;;;;;30.67;21.03;;;9.50;99.40;;;;;;4971884;28;20098;-65
2022/03/24 08:38:10;;;;;;;28.77;20.87;;;9.50;99.10;;;;;;4971966;28;20121;-65
2022/03/24 08:40:37;;;;;;;28.70;21.13;;;9.70;91.90;;;;;;4967279;28;20030;-65
2022/03/24 08:43:04;;;;;;;26.03;20.37;;;10.00;98.50;;;;;;4971149;28;20450;-65
2022/03/24 08:45:30;;;;;;;29.23;20.93;;;10.30;98.10;;;;;;4971843;28;20078;-65
2022/03/24 08:47:56;;;;;;;25.30;19.30;;;10.20;95.80;;;;;;4971513;28;20027;-65
2022/03/24 08:50:23;;;;;;;27.93;20.97;;;10.40;97.30;;;;;;4970368;28;20480;-65
2022/03/24 08:52:49;;;;;;;31.70;21.30;;;;;;;;;;4971782;28;20019;-67
2022/03/24 08:55:15;;;;;;;27.80;19.37;;;;;;;;;;4971873;28;20089;-66
2022/03/24 08:57:42;;;;;;;31.50;22.83;;;11.20;96.30;;;;;;4972137;28;20077;-66
2022/03/24 09:00:15;;;;;;;27.57;20.07;;;11.30;93.70;;;;;;4971403;28;20484;-66
2022/03/24 09:02:49;;;;;;;24.98;19.23;;;11.40;93.00;;;;;;4970924;28;20026;-65
2022/03/24 09:05:16;;;;;;;25.55;19.13;;;11.50;92.20;;;;;;4971847;28;20054;-65
2022/03/24 09:07:42;;;;;;;26.53;18.30;;;11.90;94.40;;;;;;4971877;28;20031;-65
2022/03/24 09:10:10;;;;;;;28.13;18.80;;;12.10;93.90;;;;;;4971732;28;20434;-65
2022/03/24 09:12:38;;;;;;;26.93;20.00;;;11.90;81.30;;;;;;4971980;28;20027;-64
2022/03/24 09:15:05;;;;;;;23.80;17.70;;;12.10;93.10;;;;;;4971195;28;20030;-66
2022/03/24 09:17:32;;;;;;;28.10;19.13;;;12.40;92.70;;;;;;4970584;28;20034;-66
2022/03/24 09:19:58;;;;;;;26.73;20.33;;;12.50;92.60;;;;;;4971375;28;20034;-66
2022/03/24 09:22:24;;;;;;;23.50;18.27;;;;;;;;;;4971949;28;20387;-66
2022/03/24 09:24:50;;;;;;;24.07;16.87;;;12.60;92.40;;;;;;4971331;28;20023;-66
2022/03/24 09:27:16;;;;;;;21.43;16.87;;;;;;;;;;4971701;28;20023;-66
2022/03/24 09:29:42;;;;;;;21.53;16.43;;;12.80;91.50;;;;;;4971995;28;20454;-66
2022/03/24 09:32:12;;;;;;;27.33;18.45;;;12.90;91.20;;;;;;4970744;28;20030;-66
2022/03/24 09:34:41;;;;;;;21.73;17.65;;;13.20;90.60;;;;;;4969879;28;20097;-65
2022/03/24 09:37:08;;;;;;;23.75;18.52;;;13.20;90.20;;;;;;4969667;28;20030;-66
2022/03/24 09:39:33;;;;;;;26.02;18.52;;;13.20;90.10;;;;;;4971293;28;20066;-66
2022/03/24 09:41:59;;;;;;;25.75;18.15;;;;;;;;;;4968988;28;20077;-65
2022/03/24 09:44:25;;;;;;;24.67;16.42;;;13.70;86.30;;;;;;4971058;28;20472;-66
2022/03/24 09:46:51;;;;;;;27.77;20.33;;;13.40;86.60;;;;;;4970669;28;20065;-66
2022/03/24 09:49:17;;;;;;;23.65;18.67;;;;;;;;;;4971363;28;20031;-66
2022/03/24 09:51:43;;;;;;;21.48;17.60;;;;;;;;;;4970425;28;20038;-66
2022/03/24 09:54:11;;;;;;;23.55;18.73;;;14.00;80.30;;;;;;4970970;28;20085;-66
2022/03/24 09:56:37;;;;;;;22.77;18.02;;;;;;;;;;4970982;28;20499;-66
2022/03/24 09:59:03;;;;;;;24.65;19.27;;;14.20;83.60;;;;;;4953119;28;20047;-67
2022/03/24 10:01:29;;;;;;;22.20;16.48;;;14.10;83.70;;;;;;4957524;28;20119;-67
2022/03/24 10:04:21;;;;;;;23.13;16.77;;;14.10;84.10;;;;;;4971160;28;20070;-66
2022/03/24 10:07:03;;;;;;;28.88;17.95;;;14.40;66.20;;;;;;4955663;28;20066;-67
2022/03/24 10:09:36;;;;;;;22.45;17.23;;;14.40;82.80;;;;;;4955348;28;20118;-67
2022/03/24 10:12:05;;;;;;;22.63;16.40;;;14.70;83.20;;;;;;4970798;28;20023;-67
2022/03/24 10:14:31;;;;;;;19.40;14.95;;;;;;;;;;4965806;28;20436;-67
2022/03/24 10:17:09;;;;;;;18.83;14.73;;;14.60;82.20;;;;;;4964913;28;20444;-67
2022/03/24 10:19:35;;;;;;;21.85;15.20;;;;;;;;;;4970306;28;20073;-68
2022/03/24 10:22:07;;;;;;;26.42;16.67;;;14.90;80.80;;;;;;4969425;28;20503;-67
2022/03/24 10:24:39;;;;;;;22.10;17.17;;;14.80;80.70;;;;;;4969269;28;20062;-67
2022/03/24 10:27:05;;;;;;;22.05;15.23;;;;;;;;;;4970014;28;20046;-67
2022/03/24 10:29:33;;;;;;;24.23;17.02;;;15.40;79.50;;;;;;4970349;28;20502;-67
2022/03/24 10:32:00;;;;;;;21.55;16.08;;;15.20;79.70;;;;;;4970477;28;20065;-67
2022/03/24 10:34:32;;;;;;;17.40;13.32;;;15.70;80.10;;;;;;4970321;28;20035;-65
2022/03/24 10:37:02;;;;;;;19.92;14.88;;;15.20;79.20;;;;;;4968677;28;20074;-66
2022/03/24 10:39:27;;;;;;;23.15;15.68;;;15.50;79.60;;;;;;4970085;28;20039;-66
2022/03/24 10:41:53;;;;;;;23.05;16.73;;;15.70;79.10;;;;;;4972172;28;20086;-66
2022/03/24 10:44:19;;;;;;;22.00;16.95;;;15.50;79.50;;;;;;4971678;28;20055;-66
2022/03/24 10:46:45;;;;;;;22.92;14.50;;;15.80;79.60;;;;;;4974018;28;20101;-66
2022/03/24 10:49:25;;;;;;;19.52;16.40;;;15.80;79.90;;;;;;4957510;28;20069;-66
2022/03/24 10:51:53;;;;;;;23.15;16.42;;;15.90;79.40;;;;;;4959230;28;20550;-66
2022/03/24 10:54:22;;;;;;;22.60;16.55;;;15.80;78.70;;;;;;4972070;28;20897;-66
2022/03/24 10:57:03;;;;;;;26.25;18.60;;;15.70;60.50;;;;;;4973097;28;20391;-65
2022/03/24 11:00:04;;;;;;;19.17;15.50;;;15.90;78.40;;;;;;4970646;28;20097;-66
2022/03/24 11:02:31;;;;;;;24.48;15.60;;;16.00;77.30;;;;;;4931419;29;20032;-66
2022/03/24 11:05:01;;;;;;;27.02;18.20;;;16.10;76.60;;;;;;4932018;29;20433;-66
2022/03/24 11:07:27;;;;;;;22.27;16.85;;;15.70;77.30;;;;;;4933041;29;20101;-66
2022/03/24 11:09:53;;;;;;;20.00;15.90;;;15.70;77.70;;;;;;4933146;29;20501;-66
2022/03/24 11:12:38;;;;;;;23.02;13.88;;;15.80;78.30;;;;;;4932960;29;20040;-66
2022/03/24 11:15:07;;;;;;;18.38;14.55;;;15.70;78.70;;;;;;4932291;29;20031;-66
2022/03/24 11:17:34;;;;;;;20.98;15.73;;;15.70;78.50;;;;;;4931738;29;20035;-66
2022/03/24 11:20:23;;;;;;;24.30;16.63;;;15.70;78.00;;;;;;4932826;29;20042;-66
2022/03/24 11:23:01;;;;;;;19.25;15.57;;;15.80;78.40;;;;;;4933053;29;20103;-66
2022/03/24 11:25:28;;;;;;;26.58;19.23;;;15.80;77.10;;;;;;4932998;29;20516;-66
2022/03/24 11:27:55;;;;;;;23.55;16.98;;;16.10;77.50;;;;;;4932332;29;20467;-67
2022/03/24 11:30:22;;;;;;;20.80;16.13;;;16.10;77.20;;;;;;4932905;29;20156;-67
2022/03/24 11:32:50;;;;;;;26.73;16.95;;;15.90;76.80;;;;;;4932952;29;20110;-66
2022/03/24 11:35:16;;;;;;;23.08;15.70;;;15.80;77.20;;;;;;4932987;29;20027;-66
2022/03/24 11:37:43;;;;;;;22.70;15.07;;;15.80;77.50;;;;;;4974027;28;20065;-66
2022/03/24 11:40:18;;;;;;;21.35;17.02;;;16.00;77.10;;;;;;4962939;28;20054;-66
2022/03/24 11:42:59;;;;;;;22.02;16.20;;;16.10;62.60;;;;;;4979027;28;20031;-66
2022/03/24 11:45:34;;;;;;;18.35;14.65;;;15.90;77.20;;;;;;4973460;28;20474;-66
2022/03/24 11:48:05;;;;;;;25.85;17.10;;;16.00;77.60;;;;;;4973222;28;20511;-66
2022/03/24 11:50:40;;;;;;;18.70;13.82;;;15.60;77.50;;;;;;4971337;28;20396;-66
2022/03/24 11:53:18;;;;;;;16.88;12.45;;;16.00;78.20;;;;;;4952556;28;20035;-66
2022/03/24 11:55:59;;;;;;;20.00;15.48;;;16.00;77.90;;;;;;4965472;28;20026;-67
2022/03/24 11:58:54;;;;;;;19.08;16.15;;;16.10;77.50;;;;;;4957828;28;20090;-67
2022/03/24 12:01:19;;;;;;;24.20;17.95;;;16.00;77.50;;;;;;4964670;28;20038;-66
2022/03/24 12:03:57;;;;;;;18.95;15.35;;;16.10;78.90;;;;;;4972288;28;20173;-66
2022/03/24 12:06:45;;;;;;;28.30;19.13;;;16.40;76.00;;;;;;4970973;28;20035;-66
2022/03/24 12:09:21;;;;;;;25.30;17.52;;;16.30;60.50;;;;;;4970445;28;20051;-66
2022/03/24 12:11:53;;;;;;;19.75;15.93;;;16.40;60.60;;;;;;4972570;28;20093;-66
2022/03/24 12:14:48;;;;;;;20.58;15.85;;;17.80;61.10;;;;;;4972755;28;20023;-66
2022/03/24 12:17:21;;;;;;;21.38;16.38;;;16.20;75.40;;;;;;4971470;28;20025;-66
2022/03/24 12:19:53;;;;;;;;;;;16.40;60.80;;;;;;4973368;28;20061;-65
2022/03/24 12:22:25;;;;;;;19.55;15.60;;;16.50;58.30;;;;;;4972075;28;19964;-65
2022/03/24 12:24:51;;;;;;;21.67;14.73;;;16.60;75.50;;;;;;4972326;28;20481;-66
2022/03/24 12:27:17;;;;;;;18.10;13.98;;;16.20;59.40;;;;;;4970793;28;20023;-65
2022/03/24 12:30:09;;;;;;;16.77;12.35;;;16.40;75.90;;;;;;4972781;28;20022;-65
2022/03/24 12:32:35;;;;;;;14.50;12.70;;;16.30;75.20;;;;;;4972165;28;20058;-66
2022/03/24 12:35:02;;;;;;;24.75;17.20;;;16.50;58.90;;;;;;4972394;28;20050;-66
2022/03/24 12:37:30;;;;;;;24.02;16.75;;;16.60;59.50;;;;;;4972240;28;20528;-66
2022/03/24 12:40:14;;;;;;;18.10;15.65;;;16.50;57.30;;;;;;4971735;28;20039;-66
2022/03/24 12:42:43;;;;;;;12.57;9.88;;;16.60;75.00;;;;;;4974520;28;20022;-65
2022/03/24 12:45:10;;;;;;;13.88;9.07;;;16.70;59.20;;;;;;4977600;28;20092;-65
2022/03/24 12:47:38;;;;;;;15.85;10.85;;;16.80;74.20;;;;;;4974018;28;20042;-65
2022/03/24 12:50:11;;;;;;;16.05;10.13;;;16.90;57.40;;;;;;4971238;28;20066;-66
2022/03/24 12:52:55;;;;;;;17.73;11.90;;;16.80;64.70;;;;;;4972387;28;20088;-66
2022/03/24 12:55:28;;;;;;;17.85;10.82;;;16.80;72.00;;;;;;4970425;28;20031;-66
2022/03/24 12:57:55;;;;;;;12.57;10.48;;;16.90;59.70;;;;;;4971806;28;20093;-66